sensor_id;sensor_type;location;lat;lon;timestamp;pressure;altitude;pressure_sealevel;temperature;humidity
54407;BME280;40313;50.308;30.374;2023-07-22T00:00:21;58358.44;;;-147.05;100.00
54407;BME280;40313;50.308;30.374;2023-07-22T00:02:48;58358.44;;;-147.05;100.00
54407;BME280;40313;50.308;30.374;2023-07-22T00:05:15;58358.44;;;-147.05;100.00
54407;BME280;40313;50.308;30.374;2023-07-22T00:07:42;58358.44;;;-147.05;100.00
54407;BME280;40313;50.308;30.374;2023-07-22T00:10:09;58358.44;;;-147.05;100.00
54407;BME280;40313;50.308;30.374;2023-07-22T00:12:37;58358.44;;;-147.05;100.00
54407;BME280;40313;50.308;30.374;2023-07-22T00:15:04;58358.44;;;-147.05;100.00
54407;BME280;40313;50.308;30.374;2023-07-22T00:17:31;58358.44;;;-147.05;100.00
54407;BME280;40313;50.308;30.374;2023-07-22T00:20:01;58358.44;;;-147.05;100.00
54407;BME280;40313;50.308;30.374;2023-07-22T00:22:29;58358.44;;;-147.05;100.00
54407;BME280;40313;50.308;30.374;2023-07-22T00:24:56;58358.44;;;-147.05;100.00
54407;BME280;40313;50.308;30.374;2023-07-22T00:27:25;58358.44;;;-147.05;100.00
54407;BME280;40313;50.308;30.374;2023-07-22T00:29:53;58358.44;;;-147.05;100.00
54407;BME280;40313;50.308;30.374;2023-07-22T00:32:20;58358.44;;;-147.05;100.00
54407;BME280;40313;50.308;30.374;2023-07-22T00:34:46;58358.44;;;-147.05;100.00
54407;BME280;40313;50.308;30.374;2023-07-22T00:37:13;58358.44;;;-147.05;100.00
54407;BME280;40313;50.308;30.374;2023-07-22T00:39:42;58358.44;;;-147.05;100.00
54407;BME280;40313;50.308;30.374;2023-07-22T00:42:08;58358.44;;;-147.05;100.00
54407;BME280;40313;50.308;30.374;2023-07-22T00:44:36;58358.44;;;-147.05;100.00
54407;BME280;40313;50.308;30.374;2023-07-22T00:47:04;58358.44;;;-147.05;100.00
54407;BME280;40313;50.308;30.374;2023-07-22T00:49:31;58358.44;;;-147.05;100.00
54407;BME280;40313;50.308;30.374;2023-07-22T00:52:01;58358.44;;;-147.05;100.00
54407;BME280;40313;50.308;30.374;2023-07-22T00:54:27;58358.44;;;-147.05;100.00
54407;BME280;40313;50.308;30.374;2023-07-22T00:56:54;58358.44;;;-147.05;100.00
54407;BME280;40313;50.308;30.374;2023-07-22T00:59:23;58358.44;;;-147.05;100.00
54407;BME280;40313;50.308;30.374;2023-07-22T01:01:49;58358.44;;;-147.05;100.00
54407;BME280;40313;50.308;30.374;2023-07-22T01:04:19;58358.44;;;-147.05;100.00
54407;BME280;40313;50.308;30.374;2023-07-22T01:06:48;58358.44;;;-147.05;100.00
54407;BME280;40313;50.308;30.374;2023-07-22T01:09:15;58358.44;;;-147.05;100.00
54407;BME280;40313;50.308;30.374;2023-07-22T01:11:42;58358.44;;;-147.05;100.00
54407;BME280;40313;50.308;30.374;2023-07-22T01:14:09;58358.44;;;-147.05;100.00
54407;BME280;40313;50.308;30.374;2023-07-22T01:16:36;58358.44;;;-147.05;100.00
54407;BME280;40313;50.308;30.374;2023-07-22T01:19:04;58358.44;;;-147.05;100.00
54407;BME280;40313;50.308;30.374;2023-07-22T01:21:33;58358.44;;;-147.05;100.00
54407;BME280;40313;50.308;30.374;2023-07-22T01:24:02;58358.44;;;-147.05;100.00
54407;BME280;40313;50.308;30.374;2023-07-22T01:26:28;58358.44;;;-147.05;100.00
54407;BME280;40313;50.308;30.374;2023-07-22T01:29:02;58358.44;;;-147.05;100.00
54407;BME280;40313;50.308;30.374;2023-07-22T01:31:29;58358.44;;;-147.05;100.00
54407;BME280;40313;50.308;30.374;2023-07-22T01:33:56;58358.44;;;-147.05;100.00
54407;BME280;40313;50.308;30.374;2023-07-22T01:36:24;58358.44;;;-147.05;100.00
54407;BME280;40313;50.308;30.374;2023-07-22T01:38:50;58358.44;;;-147.05;100.00
54407;BME280;40313;50.308;30.374;2023-07-22T01:41:18;58358.44;;;-147.05;100.00
54407;BME280;40313;50.308;30.374;2023-07-22T01:43:45;58358.44;;;-147.05;100.00
54407;BME280;40313;50.308;30.374;2023-07-22T01:46:12;58358.44;;;-147.05;100.00
54407;BME280;40313;50.308;30.374;2023-07-22T01:48:39;58358.44;;;-147.05;100.00
54407;BME280;40313;50.308;30.374;2023-07-22T01:51:05;58358.44;;;-147.05;100.00
54407;BME280;40313;50.308;30.374;2023-07-22T01:53:32;58358.44;;;-147.05;100.00
54407;BME280;40313;50.308;30.374;2023-07-22T01:55:59;58358.44;;;-147.05;100.00
54407;BME280;40313;50.308;30.374;2023-07-22T01:58:27;58358.44;;;-147.05;100.00
54407;BME280;40313;50.308;30.374;2023-07-22T02:00:54;58358.44;;;-147.05;100.00
54407;BME280;40313;50.308;30.374;2023-07-22T02:03:20;58358.44;;;-147.05;100.00
54407;BME280;40313;50.308;30.374;2023-07-22T02:05:48;58358.44;;;-147.05;100.00
54407;BME280;40313;50.308;30.374;2023-07-22T02:08:14;58358.44;;;-147.05;100.00
54407;BME280;40313;50.308;30.374;2023-07-22T02:10:41;58358.44;;;-147.05;100.00
54407;BME280;40313;50.308;30.374;2023-07-22T02:13:09;58358.44;;;-147.05;100.00
54407;BME280;40313;50.308;30.374;2023-07-22T02:15:37;58358.44;;;-147.05;100.00
54407;BME280;40313;50.308;30.374;2023-07-22T02:18:04;58358.44;;;-147.05;100.00
54407;BME280;40313;50.308;30.374;2023-07-22T02:20:31;58358.44;;;-147.05;100.00
54407;BME280;40313;50.308;30.374;2023-07-22T02:22:57;58358.44;;;-147.05;100.00
54407;BME280;40313;50.308;30.374;2023-07-22T02:25:24;58358.44;;;-147.05;100.00
54407;BME280;40313;50.308;30.374;2023-07-22T02:27:51;58358.44;;;-147.05;100.00
54407;BME280;40313;50.308;30.374;2023-07-22T02:30:18;58358.44;;;-147.05;100.00
54407;BME280;40313;50.308;30.374;2023-07-22T02:32:46;58358.44;;;-147.05;100.00
54407;BME280;40313;50.308;30.374;2023-07-22T02:35:12;58358.44;;;-147.05;100.00
54407;BME280;40313;50.308;30.374;2023-07-22T02:37:39;58358.44;;;-147.05;100.00
54407;BME280;40313;50.308;30.374;2023-07-22T02:40:06;58358.44;;;-147.05;100.00
54407;BME280;40313;50.308;30.374;2023-07-22T02:42:36;58358.44;;;-147.05;100.00
54407;BME280;40313;50.308;30.374;2023-07-22T02:45:03;58358.44;;;-147.05;100.00
54407;BME280;40313;50.308;30.374;2023-07-22T02:47:32;58358.44;;;-147.05;100.00
54407;BME280;40313;50.308;30.374;2023-07-22T02:50:01;58358.44;;;-147.05;100.00
54407;BME280;40313;50.308;30.374;2023-07-22T02:52:28;58358.44;;;-147.05;100.00
54407;BME280;40313;50.308;30.374;2023-07-22T02:55:07;58358.44;;;-147.05;100.00
54407;BME280;40313;50.308;30.374;2023-07-22T02:57:34;58358.44;;;-147.05;100.00
54407;BME280;40313;50.308;30.374;2023-07-22T03:00:01;58358.44;;;-147.05;100.00
54407;BME280;40313;50.308;30.374;2023-07-22T03:02:32;58358.44;;;-147.05;100.00
54407;BME280;40313;50.308;30.374;2023-07-22T03:05:00;58358.44;;;-147.05;100.00
54407;BME280;40313;50.308;30.374;2023-07-22T03:07:28;58358.44;;;-147.05;100.00
54407;BME280;40313;50.308;30.374;2023-07-22T03:09:55;58358.44;;;-147.05;100.00
54407;BME280;40313;50.308;30.374;2023-07-22T03:12:21;58358.44;;;-147.05;100.00
54407;BME280;40313;50.308;30.374;2023-07-22T03:14:48;58358.44;;;-147.05;100.00
54407;BME280;40313;50.308;30.374;2023-07-22T03:17:14;58358.44;;;-147.05;100.00
54407;BME280;40313;50.308;30.374;2023-07-22T03:19:42;58358.44;;;-147.05;100.00
54407;BME280;40313;50.308;30.374;2023-07-22T03:22:11;58358.44;;;-147.05;100.00
54407;BME280;40313;50.308;30.374;2023-07-22T03:24:38;58358.44;;;-147.05;100.00
54407;BME280;40313;50.308;30.374;2023-07-22T03:27:05;58358.44;;;-147.05;100.00
54407;BME280;40313;50.308;30.374;2023-07-22T03:29:32;58358.44;;;-147.05;100.00
54407;BME280;40313;50.308;30.374;2023-07-22T03:31:59;58358.44;;;-147.05;100.00
54407;BME280;40313;50.308;30.374;2023-07-22T03:34:27;58358.44;;;-147.05;100.00
54407;BME280;40313;50.308;30.374;2023-07-22T03:36:53;58358.44;;;-147.05;100.00
54407;BME280;40313;50.308;30.374;2023-07-22T03:39:22;58358.44;;;-147.05;100.00
54407;BME280;40313;50.308;30.374;2023-07-22T03:41:48;58358.44;;;-147.05;100.00
54407;BME280;40313;50.308;30.374;2023-07-22T03:44:15;58358.44;;;-147.05;100.00
54407;BME280;40313;50.308;30.374;2023-07-22T03:46:42;58358.44;;;-147.05;100.00
54407;BME280;40313;50.308;30.374;2023-07-22T03:49:08;58358.44;;;-147.05;100.00
54407;BME280;40313;50.308;30.374;2023-07-22T03:51:35;58358.44;;;-147.05;100.00
54407;BME280;40313;50.308;30.374;2023-07-22T03:54:02;58358.44;;;-147.05;100.00
54407;BME280;40313;50.308;30.374;2023-07-22T03:56:30;58358.44;;;-147.05;100.00
54407;BME280;40313;50.308;30.374;2023-07-22T03:58:57;58358.44;;;-147.05;100.00
54407;BME280;40313;50.308;30.374;2023-07-22T04:01:23;58358.44;;;-147.05;100.00
54407;BME280;40313;50.308;30.374;2023-07-22T04:03:50;58358.44;;;-147.05;100.00
54407;BME280;40313;50.308;30.374;2023-07-22T04:06:17;58358.44;;;-147.05;100.00
54407;BME280;40313;50.308;30.374;2023-07-22T04:08:44;58358.44;;;-147.05;100.00
54407;BME280;40313;50.308;30.374;2023-07-22T04:11:10;58358.44;;;-147.05;100.00
54407;BME280;40313;50.308;30.374;2023-07-22T04:13:40;58358.44;;;-147.05;100.00
54407;BME280;40313;50.308;30.374;2023-07-22T04:16:07;58358.44;;;-147.05;100.00
54407;BME280;40313;50.308;30.374;2023-07-22T04:18:34;58358.44;;;-147.05;100.00
54407;BME280;40313;50.308;30.374;2023-07-22T04:21:00;58358.44;;;-147.05;100.00
54407;BME280;40313;50.308;30.374;2023-07-22T04:23:27;58358.44;;;-147.05;100.00
54407;BME280;40313;50.308;30.374;2023-07-22T04:25:54;58358.44;;;-147.05;100.00
54407;BME280;40313;50.308;30.374;2023-07-22T04:28:20;58358.44;;;-147.05;100.00
54407;BME280;40313;50.308;30.374;2023-07-22T04:30:56;58358.44;;;-147.05;100.00
54407;BME280;40313;50.308;30.374;2023-07-22T04:33:23;58358.44;;;-147.05;100.00
54407;BME280;40313;50.308;30.374;2023-07-22T04:35:50;58358.44;;;-147.05;100.00
54407;BME280;40313;50.308;30.374;2023-07-22T04:38:19;58358.44;;;-147.05;100.00
54407;BME280;40313;50.308;30.374;2023-07-22T04:40:45;58358.44;;;-147.05;100.00
54407;BME280;40313;50.308;30.374;2023-07-22T04:43:12;58358.44;;;-147.05;100.00
54407;BME280;40313;50.308;30.374;2023-07-22T04:45:39;58358.44;;;-147.05;100.00
54407;BME280;40313;50.308;30.374;2023-07-22T04:48:07;58358.44;;;-147.05;100.00
54407;BME280;40313;50.308;30.374;2023-07-22T04:50:34;58358.44;;;-147.05;100.00
54407;BME280;40313;50.308;30.374;2023-07-22T04:53:00;58358.44;;;-147.05;100.00
54407;BME280;40313;50.308;30.374;2023-07-22T04:55:27;58358.44;;;-147.05;100.00
54407;BME280;40313;50.308;30.374;2023-07-22T04:57:55;58358.44;;;-147.05;100.00
54407;BME280;40313;50.308;30.374;2023-07-22T05:00:22;58358.44;;;-147.05;100.00
54407;BME280;40313;50.308;30.374;2023-07-22T05:02:49;58358.44;;;-147.05;100.00
54407;BME280;40313;50.308;30.374;2023-07-22T05:05:18;58358.44;;;-147.05;100.00
54407;BME280;40313;50.308;30.374;2023-07-22T05:07:47;58358.44;;;-147.05;100.00
54407;BME280;40313;50.308;30.374;2023-07-22T05:10:14;58358.44;;;-147.05;100.00
54407;BME280;40313;50.308;30.374;2023-07-22T05:12:42;58358.44;;;-147.05;100.00
54407;BME280;40313;50.308;30.374;2023-07-22T05:15:10;58358.44;;;-147.05;100.00
54407;BME280;40313;50.308;30.374;2023-07-22T05:17:37;58358.44;;;-147.05;100.00
54407;BME280;40313;50.308;30.374;2023-07-22T05:20:04;58358.44;;;-147.05;100.00
54407;BME280;40313;50.308;30.374;2023-07-22T05:22:36;58358.44;;;-147.05;100.00
54407;BME280;40313;50.308;30.374;2023-07-22T05:25:05;58358.44;;;-147.05;100.00
54407;BME280;40313;50.308;30.374;2023-07-22T05:27:32;58358.44;;;-147.05;100.00
54407;BME280;40313;50.308;30.374;2023-07-22T05:29:58;58358.44;;;-147.05;100.00
54407;BME280;40313;50.308;30.374;2023-07-22T05:32:25;58358.44;;;-147.05;100.00
54407;BME280;40313;50.308;30.374;2023-07-22T05:34:54;58358.44;;;-147.05;100.00
54407;BME280;40313;50.308;30.374;2023-07-22T05:37:21;58358.44;;;-147.05;100.00
54407;BME280;40313;50.308;30.374;2023-07-22T05:39:49;58358.44;;;-147.05;100.00
54407;BME280;40313;50.308;30.374;2023-07-22T05:42:16;58358.44;;;-147.05;100.00
54407;BME280;40313;50.308;30.374;2023-07-22T05:44:43;58358.44;;;-147.05;100.00
54407;BME280;40313;50.308;30.374;2023-07-22T05:47:10;58358.44;;;-147.05;100.00
54407;BME280;40313;50.308;30.374;2023-07-22T05:49:36;58358.44;;;-147.05;100.00
54407;BME280;40313;50.308;30.374;2023-07-22T05:52:03;58358.44;;;-147.05;100.00
54407;BME280;40313;50.308;30.374;2023-07-22T05:54:30;58358.44;;;-147.05;100.00
54407;BME280;40313;50.308;30.374;2023-07-22T05:56:58;58358.44;;;-147.05;100.00
54407;BME280;40313;50.308;30.374;2023-07-22T05:59:25;58358.44;;;-147.05;100.00
54407;BME280;40313;50.308;30.374;2023-07-22T06:01:51;58358.44;;;-147.05;100.00
54407;BME280;40313;50.308;30.374;2023-07-22T06:04:18;58358.44;;;-147.05;100.00
54407;BME280;40313;50.308;30.374;2023-07-22T06:06:45;58358.44;;;-147.05;100.00
54407;BME280;40313;50.308;30.374;2023-07-22T06:09:11;58358.44;;;-147.05;100.00
54407;BME280;40313;50.308;30.374;2023-07-22T06:11:38;58358.44;;;-147.05;100.00
54407;BME280;40313;50.308;30.374;2023-07-22T06:14:06;58358.44;;;-147.05;100.00
54407;BME280;40313;50.308;30.374;2023-07-22T06:16:33;58358.44;;;-147.05;100.00
54407;BME280;40313;50.308;30.374;2023-07-22T06:19:00;58358.44;;;-147.05;100.00
54407;BME280;40313;50.308;30.374;2023-07-22T06:21:27;58358.44;;;-147.05;100.00
54407;BME280;40313;50.308;30.374;2023-07-22T06:23:53;58358.44;;;-147.05;100.00
54407;BME280;40313;50.308;30.374;2023-07-22T06:26:21;58358.44;;;-147.05;100.00
54407;BME280;40313;50.308;30.374;2023-07-22T06:28:48;58358.44;;;-147.05;100.00
54407;BME280;40313;50.308;30.374;2023-07-22T06:31:16;58358.44;;;-147.05;100.00
54407;BME280;40313;50.308;30.374;2023-07-22T06:33:43;58358.44;;;-147.05;100.00
54407;BME280;40313;50.308;30.374;2023-07-22T06:36:10;58358.44;;;-147.05;100.00
54407;BME280;40313;50.308;30.374;2023-07-22T06:38:37;58358.44;;;-147.05;100.00
54407;BME280;40313;50.308;30.374;2023-07-22T06:41:04;58358.44;;;-147.05;100.00
54407;BME280;40313;50.308;30.374;2023-07-22T06:43:30;58358.44;;;-147.05;100.00
54407;BME280;40313;50.308;30.374;2023-07-22T06:45:57;58358.44;;;-147.05;100.00
54407;BME280;40313;50.308;30.374;2023-07-22T06:48:25;58358.44;;;-147.05;100.00
54407;BME280;40313;50.308;30.374;2023-07-22T06:50:52;58358.44;;;-147.05;100.00
54407;BME280;40313;50.308;30.374;2023-07-22T06:53:19;58358.44;;;-147.05;100.00
54407;BME280;40313;50.308;30.374;2023-07-22T06:55:49;58358.44;;;-147.05;100.00
54407;BME280;40313;50.308;30.374;2023-07-22T06:58:16;58358.44;;;-147.05;100.00
54407;BME280;40313;50.308;30.374;2023-07-22T07:00:43;58358.44;;;-147.05;100.00
54407;BME280;40313;50.308;30.374;2023-07-22T07:03:09;58358.44;;;-147.05;100.00
54407;BME280;40313;50.308;30.374;2023-07-22T07:05:37;58358.44;;;-147.05;100.00
54407;BME280;40313;50.308;30.374;2023-07-22T07:08:06;58358.44;;;-147.05;100.00
54407;BME280;40313;50.308;30.374;2023-07-22T07:10:37;58358.44;;;-147.05;100.00
54407;BME280;40313;50.308;30.374;2023-07-22T07:13:03;58358.44;;;-147.05;100.00
54407;BME280;40313;50.308;30.374;2023-07-22T07:15:30;58358.44;;;-147.05;100.00
54407;BME280;40313;50.308;30.374;2023-07-22T07:17:57;58358.44;;;-147.05;100.00
54407;BME280;40313;50.308;30.374;2023-07-22T07:20:23;58358.44;;;-147.05;100.00
54407;BME280;40313;50.308;30.374;2023-07-22T07:22:51;58358.44;;;-147.05;100.00
54407;BME280;40313;50.308;30.374;2023-07-22T07:25:18;58358.44;;;-147.05;100.00
54407;BME280;40313;50.308;30.374;2023-07-22T07:27:45;58358.44;;;-147.05;100.00
54407;BME280;40313;50.308;30.374;2023-07-22T07:30:11;58358.44;;;-147.05;100.00
54407;BME280;40313;50.308;30.374;2023-07-22T07:32:38;58358.44;;;-147.05;100.00
54407;BME280;40313;50.308;30.374;2023-07-22T07:35:07;58358.44;;;-147.05;100.00
54407;BME280;40313;50.308;30.374;2023-07-22T07:37:33;58358.44;;;-147.05;100.00
54407;BME280;40313;50.308;30.374;2023-07-22T07:40:02;58358.44;;;-147.05;100.00
54407;BME280;40313;50.308;30.374;2023-07-22T07:42:29;58358.44;;;-147.05;100.00
54407;BME280;40313;50.308;30.374;2023-07-22T07:44:56;58358.44;;;-147.05;100.00
54407;BME280;40313;50.308;30.374;2023-07-22T07:47:22;58358.44;;;-147.05;100.00
54407;BME280;40313;50.308;30.374;2023-07-22T07:49:50;58358.44;;;-147.05;100.00
54407;BME280;40313;50.308;30.374;2023-07-22T07:52:16;58358.44;;;-147.05;100.00
54407;BME280;40313;50.308;30.374;2023-07-22T07:54:43;58358.44;;;-147.05;100.00
54407;BME280;40313;50.308;30.374;2023-07-22T07:57:11;58358.44;;;-147.05;100.00
54407;BME280;40313;50.308;30.374;2023-07-22T07:59:37;58358.44;;;-147.05;100.00
54407;BME280;40313;50.308;30.374;2023-07-22T08:02:05;58358.44;;;-147.05;100.00
54407;BME280;40313;50.308;30.374;2023-07-22T08:04:34;58358.44;;;-147.05;100.00
54407;BME280;40313;50.308;30.374;2023-07-22T08:07:01;58358.44;;;-147.05;100.00
54407;BME280;40313;50.308;30.374;2023-07-22T08:09:30;58358.44;;;-147.05;100.00
54407;BME280;40313;50.308;30.374;2023-07-22T08:11:56;58358.44;;;-147.05;100.00
54407;BME280;40313;50.308;30.374;2023-07-22T08:14:24;58358.44;;;-147.05;100.00
54407;BME280;40313;50.308;30.374;2023-07-22T08:16:51;58358.44;;;-147.05;100.00
54407;BME280;40313;50.308;30.374;2023-07-22T08:19:18;58358.44;;;-147.05;100.00
54407;BME280;40313;50.308;30.374;2023-07-22T08:21:44;58358.44;;;-147.05;100.00
54407;BME280;40313;50.308;30.374;2023-07-22T08:24:11;58358.44;;;-147.05;100.00
54407;BME280;40313;50.308;30.374;2023-07-22T08:26:38;58358.44;;;-147.05;100.00
54407;BME280;40313;50.308;30.374;2023-07-22T08:29:05;58358.44;;;-147.05;100.00
54407;BME280;40313;50.308;30.374;2023-07-22T08:31:33;58358.44;;;-147.05;100.00
54407;BME280;40313;50.308;30.374;2023-07-22T08:33:59;58358.44;;;-147.05;100.00
54407;BME280;40313;50.308;30.374;2023-07-22T08:36:26;58358.44;;;-147.05;100.00
54407;BME280;40313;50.308;30.374;2023-07-22T08:38:53;58358.44;;;-147.05;100.00
54407;BME280;40313;50.308;30.374;2023-07-22T08:41:24;58358.44;;;-147.05;100.00
54407;BME280;40313;50.308;30.374;2023-07-22T08:43:54;58358.44;;;-147.05;100.00
54407;BME280;40313;50.308;30.374;2023-07-22T08:46:22;58358.44;;;-147.05;100.00
54407;BME280;40313;50.308;30.374;2023-07-22T08:48:56;58358.44;;;-147.05;100.00
54407;BME280;40313;50.308;30.374;2023-07-22T08:51:26;58358.44;;;-147.05;100.00
54407;BME280;40313;50.308;30.374;2023-07-22T08:53:54;58358.44;;;-147.05;100.00
54407;BME280;40313;50.308;30.374;2023-07-22T08:56:23;58358.44;;;-147.05;100.00
54407;BME280;40313;50.308;30.374;2023-07-22T08:58:51;58358.44;;;-147.05;100.00
54407;BME280;40313;50.308;30.374;2023-07-22T09:01:18;58358.44;;;-147.05;100.00
54407;BME280;40313;50.308;30.374;2023-07-22T09:03:46;58358.44;;;-147.05;100.00
54407;BME280;40313;50.308;30.374;2023-07-22T09:06:15;58358.44;;;-147.05;100.00
54407;BME280;40313;50.308;30.374;2023-07-22T09:08:42;58358.44;;;-147.05;100.00
54407;BME280;40313;50.308;30.374;2023-07-22T09:11:09;58358.44;;;-147.05;100.00
54407;BME280;40313;50.308;30.374;2023-07-22T09:13:36;58358.44;;;-147.05;100.00
54407;BME280;40313;50.308;30.374;2023-07-22T09:16:05;58358.44;;;-147.05;100.00
54407;BME280;40313;50.308;30.374;2023-07-22T09:18:32;99309.81;;;32.05;100.00
54407;BME280;40313;50.308;30.374;2023-07-22T09:20:59;99309.53;;;33.23;100.00
54407;BME280;40313;50.308;30.374;2023-07-22T09:23:35;99304.41;;;33.10;100.00
54407;BME280;40313;50.308;30.374;2023-07-22T09:26:08;99308.31;;;33.65;99.74
54407;BME280;40313;50.308;30.374;2023-07-22T09:28:47;99302.69;;;33.50;95.84
54407;BME280;40313;50.308;30.374;2023-07-22T09:31:14;99300.56;;;33.06;96.82
54407;BME280;40313;50.308;30.374;2023-07-22T09:33:41;99297.75;;;33.01;95.60
54407;BME280;40313;50.308;30.374;2023-07-22T09:36:09;99288.34;;;32.22;98.65
54407;BME280;40313;50.308;30.374;2023-07-22T09:38:38;99280.13;;;32.81;94.20
54407;BME280;40313;50.308;30.374;2023-07-22T09:41:05;99278.25;;;32.29;92.52
54407;BME280;40313;50.308;30.374;2023-07-22T09:43:36;99282.50;;;32.66;92.93
54407;BME280;40313;50.308;30.374;2023-07-22T09:46:07;99283.97;;;32.45;92.01
54407;BME280;40313;50.308;30.374;2023-07-22T09:48:39;99286.78;;;32.38;91.66
54407;BME280;40313;50.308;30.374;2023-07-22T09:51:11;99287.19;;;32.30;93.41
54407;BME280;40313;50.308;30.374;2023-07-22T09:53:44;99278.56;;;32.45;88.31
54407;BME280;40313;50.308;30.374;2023-07-22T09:56:11;99276.25;;;32.65;89.11
54407;BME280;40313;50.308;30.374;2023-07-22T09:58:38;99277.50;;;32.46;88.79
54407;BME280;40313;50.308;30.374;2023-07-22T10:01:07;99266.97;;;32.32;89.08
54407;BME280;40313;50.308;30.374;2023-07-22T10:03:37;99276.31;;;32.53;88.85
54407;BME280;40313;50.308;30.374;2023-07-22T10:06:05;99270.34;;;32.39;88.62
54407;BME280;40313;50.308;30.374;2023-07-22T10:08:34;99268.28;;;32.70;87.51
54407;BME280;40313;50.308;30.374;2023-07-22T10:11:05;99267.25;;;32.60;86.95
54407;BME280;40313;50.308;30.374;2023-07-22T10:13:37;99264.34;;;32.49;86.86
54407;BME280;40313;50.308;30.374;2023-07-22T10:16:05;99259.25;;;32.65;86.34
54407;BME280;40313;50.308;30.374;2023-07-22T10:18:33;99251.31;;;32.46;88.09
54407;BME280;40313;50.308;30.374;2023-07-22T10:21:02;99250.09;;;32.66;87.27
54407;BME280;40313;50.308;30.374;2023-07-22T10:23:31;99242.50;;;32.51;86.79
54407;BME280;40313;50.308;30.374;2023-07-22T10:25:58;99242.97;;;32.48;86.35
54407;BME280;40313;50.308;30.374;2023-07-22T10:28:26;99247.13;;;32.38;86.88
54407;BME280;40313;50.308;30.374;2023-07-22T10:30:55;99240.56;;;32.63;86.85
54407;BME280;40313;50.308;30.374;2023-07-22T10:33:22;99239.97;;;32.44;86.24
54407;BME280;40313;50.308;30.374;2023-07-22T10:36:06;99240.69;;;32.28;87.64
54407;BME280;40313;50.308;30.374;2023-07-22T10:38:33;99255.88;;;32.58;87.45
54407;BME280;40313;50.308;30.374;2023-07-22T10:41:00;99250.13;;;32.01;91.18
54407;BME280;40313;50.308;30.374;2023-07-22T10:43:31;58358.44;;;-147.05;100.00
54407;BME280;40313;50.308;30.374;2023-07-22T10:46:05;58358.44;;;-147.05;100.00
54407;BME280;40313;50.308;30.374;2023-07-22T10:48:34;58358.44;;;-147.05;100.00
54407;BME280;40313;50.308;30.374;2023-07-22T10:51:05;58358.44;;;-147.05;100.00
54407;BME280;40313;50.308;30.374;2023-07-22T10:53:32;58358.44;;;-147.05;100.00
54407;BME280;40313;50.308;30.374;2023-07-22T10:56:07;58358.44;;;-147.05;100.00
54407;BME280;40313;50.308;30.374;2023-07-22T10:58:56;58358.44;;;-147.05;100.00
54407;BME280;40313;50.308;30.374;2023-07-22T11:01:31;58358.44;;;-147.05;100.00
54407;BME280;40313;50.308;30.374;2023-07-22T11:04:13;58358.44;;;-147.05;100.00
54407;BME280;40313;50.308;30.374;2023-07-22T11:06:52;58358.44;;;-147.05;100.00
54407;BME280;40313;50.308;30.374;2023-07-22T11:09:36;58358.44;;;-147.05;100.00
54407;BME280;40313;50.308;30.374;2023-07-22T11:12:05;58358.44;;;-147.05;100.00
54407;BME280;40313;50.308;30.374;2023-07-22T11:14:34;58358.44;;;-147.05;100.00
54407;BME280;40313;50.308;30.374;2023-07-22T11:17:03;58358.44;;;-147.05;100.00
54407;BME280;40313;50.308;30.374;2023-07-22T11:19:30;58358.44;;;-147.05;100.00
54407;BME280;40313;50.308;30.374;2023-07-22T11:21:57;58358.44;;;-147.05;100.00
54407;BME280;40313;50.308;30.374;2023-07-22T11:24:24;58358.44;;;-147.05;100.00
54407;BME280;40313;50.308;30.374;2023-07-22T11:26:52;58358.44;;;-147.05;100.00
54407;BME280;40313;50.308;30.374;2023-07-22T11:29:19;58358.44;;;-147.05;100.00
54407;BME280;40313;50.308;30.374;2023-07-22T11:31:48;58358.44;;;-147.05;100.00
54407;BME280;40313;50.308;30.374;2023-07-22T11:34:16;58358.44;;;-147.05;100.00
54407;BME280;40313;50.308;30.374;2023-07-22T11:36:44;58358.44;;;-147.05;100.00
54407;BME280;40313;50.308;30.374;2023-07-22T11:39:13;58358.44;;;-147.05;100.00
54407;BME280;40313;50.308;30.374;2023-07-22T11:41:40;58358.44;;;-147.05;100.00
54407;BME280;40313;50.308;30.374;2023-07-22T11:44:09;58358.44;;;-147.05;100.00
54407;BME280;40313;50.308;30.374;2023-07-22T11:46:48;58358.44;;;-147.05;100.00
54407;BME280;40313;50.308;30.374;2023-07-22T11:49:22;58358.44;;;-147.05;100.00
54407;BME280;40313;50.308;30.374;2023-07-22T11:51:49;58358.44;;;-147.05;100.00
54407;BME280;40313;50.308;30.374;2023-07-22T11:54:16;58358.44;;;-147.05;100.00
54407;BME280;40313;50.308;30.374;2023-07-22T11:56:43;58358.44;;;-147.05;100.00
54407;BME280;40313;50.308;30.374;2023-07-22T11:59:10;58358.44;;;-147.05;100.00
54407;BME280;40313;50.308;30.374;2023-07-22T12:01:36;58358.44;;;-147.05;100.00
54407;BME280;40313;50.308;30.374;2023-07-22T12:04:10;58358.44;;;-147.05;100.00
54407;BME280;40313;50.308;30.374;2023-07-22T12:06:37;58358.44;;;-147.05;100.00
54407;BME280;40313;50.308;30.374;2023-07-22T12:09:04;58358.44;;;-147.05;100.00
54407;BME280;40313;50.308;30.374;2023-07-22T12:11:32;58358.44;;;-147.05;100.00
54407;BME280;40313;50.308;30.374;2023-07-22T12:14:10;58358.44;;;-147.05;100.00
54407;BME280;40313;50.308;30.374;2023-07-22T12:16:39;58358.44;;;-147.05;100.00
54407;BME280;40313;50.308;30.374;2023-07-22T12:19:08;58358.44;;;-147.05;100.00
54407;BME280;40313;50.308;30.374;2023-07-22T12:21:35;58358.44;;;-147.05;100.00
54407;BME280;40313;50.308;30.374;2023-07-22T12:24:02;58358.44;;;-147.05;100.00
54407;BME280;40313;50.308;30.374;2023-07-22T12:26:30;58358.44;;;-147.05;100.00